createdAt,value
2023-05-21T00:02:17.303Z,101643.44
2023-05-21T00:12:18.748Z,101638.34
2023-05-21T00:22:21.778Z,101626.03
2023-05-21T00:32:23.194Z,101625.13
2023-05-21T00:42:24.477Z,101616.31
2023-05-21T00:52:25.769Z,101609.44
2023-05-21T01:02:29.291Z,101616.72
2023-05-21T01:12:33.799Z,101613.75
2023-05-21T01:22:38.001Z,101604.31
2023-05-21T01:32:39.495Z,101605.06
2023-05-21T01:42:40.901Z,101606.16
2023-05-21T01:52:46.922Z,101603.66
2023-05-21T02:02:48.343Z,101601.75
2023-05-21T02:12:49.731Z,101585.19
2023-05-21T02:22:52.279Z,101593.00
2023-05-21T02:32:57.179Z,101584.22
2023-05-21T02:42:58.624Z,101587.03
2023-05-21T02:53:02.452Z,101585.31
2023-05-21T03:03:05.036Z,101570.25
2023-05-21T03:13:08.114Z,101564.28
2023-05-21T03:23:10.993Z,101559.84
2023-05-21T03:33:12.383Z,101558.16
2023-05-21T03:43:15.858Z,101556.50
2023-05-21T03:53:17.477Z,101569.53
2023-05-21T04:03:22.671Z,101554.84
2023-05-21T04:13:24.607Z,101553.88
2023-05-21T04:23:25.931Z,101556.50
2023-05-21T04:33:28.373Z,101559.13
2023-05-21T04:43:29.653Z,101559.19
2023-05-21T04:53:31.000Z,101566.97
2023-05-21T05:03:32.377Z,101572.22
2023-05-21T05:13:38.679Z,101569.59
2023-05-21T05:23:41.861Z,101564.28
2023-05-21T05:33:43.209Z,101557.41
2023-05-21T05:43:44.652Z,101565.09
2023-05-21T05:53:46.037Z,101570.25
2023-05-21T06:03:47.585Z,101571.31
2023-05-21T06:13:51.264Z,101571.25
2023-05-21T06:23:52.702Z,101562.13
2023-05-21T06:33:54.244Z,101569.47
2023-05-21T06:44:02.697Z,101558.69
2023-05-21T06:54:10.731Z,101561.69
2023-05-21T07:04:21.155Z,101554.50
2023-05-21T07:14:34.004Z,101547.41
2023-05-21T07:24:38.577Z,101541.16
2023-05-21T07:34:46.428Z,101535.81
2023-05-21T07:44:53.837Z,101539.13
2023-05-21T07:55:01.867Z,101534.66
2023-05-21T08:05:16.415Z,101544.66
2023-05-21T08:15:20.795Z,101537.66
2023-05-21T08:25:31.392Z,101530.50
2023-05-21T08:35:37.122Z,101525.13
2023-05-21T08:45:47.860Z,101519.88
2023-05-21T08:55:51.744Z,101509.38
2023-05-21T09:06:03.945Z,101507.56
2023-05-21T09:16:09.209Z,101508.41
2023-05-21T09:26:16.780Z,101514.59
2023-05-21T09:36:26.322Z,101511.16
2023-05-21T09:46:33.890Z,101501.47
2023-05-21T09:56:41.864Z,101497.94
2023-05-21T10:06:49.789Z,101491.75
2023-05-21T10:16:59.419Z,101480.38
2023-05-21T10:27:09.343Z,101472.50
2023-05-21T10:37:13.968Z,101457.53
2023-05-21T10:47:23.128Z,101453.13
2023-05-21T10:57:31.813Z,101440.78
2023-05-21T11:07:40.694Z,101437.28
2023-05-21T11:17:57.820Z,101410.81
2023-05-21T11:27:59.320Z,101393.53
2023-05-21T11:38:02.974Z,101388.22
2023-05-21T11:48:18.101Z,101382.94
2023-05-21T11:58:20.541Z,101372.34
2023-05-21T12:08:28.729Z,101356.63
2023-05-21T12:18:39.320Z,101356.41
2023-05-21T12:28:46.900Z,101353.06
2023-05-21T12:38:58.699Z,101358.25
2023-05-21T12:49:01.884Z,101361.69
2023-05-21T12:59:09.931Z,101370.50
2023-05-21T13:09:23.884Z,101373.91
2023-05-21T13:19:27.474Z,101370.34
2023-05-21T13:29:46.119Z,101371.19
2023-05-21T13:39:49.806Z,101367.66
2023-05-21T14:00:10.380Z,101347.25
2023-05-21T14:10:15.493Z,101334.25
2023-05-21T14:20:18.006Z,101331.53
2023-05-21T14:30:28.246Z,101320.94
2023-05-21T14:54:05.373Z,101312.03
2023-05-21T15:12:13.078Z,101287.28
2023-05-21T15:22:17.614Z,101286.50
2023-05-21T15:53:17.054Z,101281.00
2023-05-21T16:03:22.945Z,101298.22
2023-05-21T16:23:39.742Z,101287.69
2023-05-21T16:33:41.240Z,101289.53
2023-05-21T16:43:53.194Z,101285.84
2023-05-21T16:53:54.901Z,101288.53
2023-05-21T17:04:13.967Z,101287.69
2023-05-21T17:14:30.306Z,101286.81
2023-05-21T17:45:19.189Z,101284.91
2023-05-21T17:55:28.438Z,101287.63
2023-05-21T18:05:38.962Z,101292.81
2023-05-21T18:15:44.080Z,101299.16
2023-05-21T18:25:55.011Z,101311.19
2023-05-21T18:36:00.864Z,101308.63
2023-05-21T18:46:10.955Z,101316.38
2023-05-21T19:16:59.210Z,101305.25
2023-05-21T19:27:09.722Z,101322.22
2023-05-21T19:37:11.178Z,101331.19
2023-05-21T19:47:16.634Z,101337.50
2023-05-21T19:57:18.074Z,101335.25
2023-05-21T20:07:22.216Z,101334.38
2023-05-21T20:17:23.664Z,101341.34
2023-05-21T20:27:28.245Z,101357.56
2023-05-21T20:37:52.294Z,101349.38
2023-05-21T20:47:56.729Z,101353.00
2023-05-21T20:57:58.207Z,101341.72
2023-05-21T21:07:59.734Z,101344.41
2023-05-21T21:18:01.104Z,101347.25
2023-05-21T21:28:02.406Z,101349.97
2023-05-21T21:38:03.793Z,101341.25
2023-05-21T21:48:06.992Z,101350.66
2023-05-21T21:58:08.916Z,101346.53
2023-05-21T22:08:10.236Z,101347.03
2023-05-21T22:18:12.882Z,101342.97
2023-05-21T22:28:14.247Z,101332.38
2023-05-21T22:38:17.524Z,101336.91
2023-05-21T22:48:18.866Z,101329.16
2023-05-21T22:58:20.174Z,101349.28
2023-05-21T23:08:21.567Z,101340.34
2023-05-21T23:18:23.006Z,101327.41
2023-05-21T23:28:24.370Z,101322.13
2023-05-21T23:38:25.693Z,101321.34
2023-05-21T23:48:29.372Z,101321.41
2023-05-21T23:58:30.708Z,101316.88
